sensor_id;sensor_type;location;lat;lon;timestamp;P1;durP1;ratioP1;P2;durP2;ratioP2
13255;SDS011;37913;48.370;10.930;2023-03-23T00:00:53;83.32;;;37.10;;
13255;SDS011;37913;48.370;10.930;2023-03-23T00:03:20;93.15;;;38.67;;
13255;SDS011;37913;48.370;10.930;2023-03-23T00:05:50;89.47;;;37.33;;
13255;SDS011;37913;48.370;10.930;2023-03-23T00:08:17;86.13;;;37.37;;
13255;SDS011;37913;48.370;10.930;2023-03-23T00:10:47;87.10;;;37.20;;
13255;SDS011;37913;48.370;10.930;2023-03-23T00:13:17;93.00;;;38.50;;
13255;SDS011;37913;48.370;10.930;2023-03-23T00:15:45;104.35;;;41.10;;
13255;SDS011;37913;48.370;10.930;2023-03-23T00:18:15;83.95;;;37.08;;
13255;SDS011;37913;48.370;10.930;2023-03-23T00:20:47;85.50;;;36.75;;
13255;SDS011;37913;48.370;10.930;2023-03-23T00:23:15;78.43;;;35.70;;
13255;SDS011;37913;48.370;10.930;2023-03-23T00:25:48;88.60;;;37.38;;
13255;SDS011;37913;48.370;10.930;2023-03-23T00:28:18;89.05;;;37.70;;
13255;SDS011;37913;48.370;10.930;2023-03-23T00:30:53;88.47;;;38.10;;
13255;SDS011;37913;48.370;10.930;2023-03-23T00:33:23;85.78;;;37.05;;
13255;SDS011;37913;48.370;10.930;2023-03-23T00:35:51;93.57;;;38.20;;
13255;SDS011;37913;48.370;10.930;2023-03-23T00:38:19;89.63;;;37.58;;
13255;SDS011;37913;48.370;10.930;2023-03-23T00:40:46;88.82;;;37.67;;
13255;SDS011;37913;48.370;10.930;2023-03-23T00:43:13;81.80;;;36.35;;
13255;SDS011;37913;48.370;10.930;2023-03-23T00:45:41;89.50;;;37.67;;
13255;SDS011;37913;48.370;10.930;2023-03-23T00:48:09;81.55;;;36.13;;
13255;SDS011;37913;48.370;10.930;2023-03-23T00:50:38;89.60;;;37.53;;
13255;SDS011;37913;48.370;10.930;2023-03-23T00:53:05;87.90;;;37.42;;
13255;SDS011;37913;48.370;10.930;2023-03-23T00:55:33;90.95;;;37.65;;
13255;SDS011;37913;48.370;10.930;2023-03-23T00:58:00;88.07;;;37.45;;
13255;SDS011;37913;48.370;10.930;2023-03-23T01:00:27;88.63;;;37.83;;
13255;SDS011;37913;48.370;10.930;2023-03-23T01:02:54;88.77;;;37.53;;
13255;SDS011;37913;48.370;10.930;2023-03-23T01:05:21;88.68;;;37.17;;
13255;SDS011;37913;48.370;10.930;2023-03-23T01:07:49;89.17;;;37.77;;
13255;SDS011;37913;48.370;10.930;2023-03-23T01:10:16;92.23;;;38.40;;
13255;SDS011;37913;48.370;10.930;2023-03-23T01:12:44;89.70;;;37.55;;
13255;SDS011;37913;48.370;10.930;2023-03-23T01:15:15;89.57;;;37.70;;
13255;SDS011;37913;48.370;10.930;2023-03-23T01:17:43;88.50;;;37.72;;
13255;SDS011;37913;48.370;10.930;2023-03-23T01:20:10;83.70;;;36.60;;
13255;SDS011;37913;48.370;10.930;2023-03-23T01:22:39;84.87;;;36.77;;
13255;SDS011;37913;48.370;10.930;2023-03-23T01:25:09;94.15;;;38.10;;
13255;SDS011;37913;48.370;10.930;2023-03-23T01:27:38;89.50;;;37.42;;
13255;SDS011;37913;48.370;10.930;2023-03-23T01:30:06;91.70;;;37.95;;
13255;SDS011;37913;48.370;10.930;2023-03-23T01:32:37;81.10;;;35.70;;
13255;SDS011;37913;48.370;10.930;2023-03-23T01:35:04;81.38;;;36.15;;
13255;SDS011;37913;48.370;10.930;2023-03-23T01:37:31;79.93;;;35.55;;
13255;SDS011;37913;48.370;10.930;2023-03-23T01:39:58;89.43;;;37.37;;
13255;SDS011;37913;48.370;10.930;2023-03-23T01:42:30;92.03;;;37.83;;
13255;SDS011;37913;48.370;10.930;2023-03-23T01:48:04;94.43;;;38.17;;
13255;SDS011;37913;48.370;10.930;2023-03-23T01:50:41;82.43;;;36.10;;
13255;SDS011;37913;48.370;10.930;2023-03-23T01:53:16;87.45;;;36.47;;
13255;SDS011;37913;48.370;10.930;2023-03-23T01:55:45;94.13;;;37.88;;
13255;SDS011;37913;48.370;10.930;2023-03-23T01:58:16;89.00;;;37.72;;
13255;SDS011;37913;48.370;10.930;2023-03-23T02:00:45;79.68;;;35.58;;
13255;SDS011;37913;48.370;10.930;2023-03-23T02:03:13;90.03;;;37.40;;
13255;SDS011;37913;48.370;10.930;2023-03-23T02:05:42;85.53;;;36.40;;
13255;SDS011;37913;48.370;10.930;2023-03-23T02:08:10;80.95;;;35.75;;
13255;SDS011;37913;48.370;10.930;2023-03-23T02:10:39;87.10;;;36.75;;
13255;SDS011;37913;48.370;10.930;2023-03-23T02:13:07;87.13;;;36.90;;
13255;SDS011;37913;48.370;10.930;2023-03-23T02:15:47;84.22;;;36.75;;
13255;SDS011;37913;48.370;10.930;2023-03-23T02:18:27;89.57;;;36.90;;
13255;SDS011;37913;48.370;10.930;2023-03-23T02:31:05;77.72;;;34.92;;
13255;SDS011;37913;48.370;10.930;2023-03-23T02:33:45;75.28;;;34.90;;
13255;SDS011;37913;48.370;10.930;2023-03-23T02:36:19;86.87;;;37.07;;
13255;SDS011;37913;48.370;10.930;2023-03-23T02:38:53;82.50;;;36.17;;
13255;SDS011;37913;48.370;10.930;2023-03-23T02:41:25;87.43;;;36.83;;
13255;SDS011;37913;48.370;10.930;2023-03-23T02:43:57;89.90;;;37.58;;
13255;SDS011;37913;48.370;10.930;2023-03-23T02:46:24;96.50;;;38.47;;
13255;SDS011;37913;48.370;10.930;2023-03-23T02:48:54;83.70;;;35.93;;
13255;SDS011;37913;48.370;10.930;2023-03-23T02:51:23;86.47;;;36.23;;
13255;SDS011;37913;48.370;10.930;2023-03-23T02:53:52;87.93;;;36.60;;
13255;SDS011;37913;48.370;10.930;2023-03-23T02:56:20;85.70;;;37.03;;
13255;SDS011;37913;48.370;10.930;2023-03-23T02:58:52;79.43;;;35.35;;
13255;SDS011;37913;48.370;10.930;2023-03-23T03:04:25;75.00;;;35.50;;
13255;SDS011;37913;48.370;10.930;2023-03-23T03:06:59;84.60;;;36.17;;
13255;SDS011;37913;48.370;10.930;2023-03-23T03:09:37;81.32;;;36.33;;
13255;SDS011;37913;48.370;10.930;2023-03-23T03:12:12;72.13;;;34.70;;
13255;SDS011;37913;48.370;10.930;2023-03-23T03:14:46;101.07;;;38.60;;
13255;SDS011;37913;48.370;10.930;2023-03-23T03:17:19;86.35;;;36.53;;
13255;SDS011;37913;48.370;10.930;2023-03-23T03:19:52;86.30;;;36.43;;
13255;SDS011;37913;48.370;10.930;2023-03-23T03:22:23;85.50;;;36.35;;
13255;SDS011;37913;48.370;10.930;2023-03-23T03:24:53;97.40;;;37.47;;
13255;SDS011;37913;48.370;10.930;2023-03-23T03:27:23;85.87;;;36.30;;
13255;SDS011;37913;48.370;10.930;2023-03-23T03:29:53;82.88;;;36.03;;
13255;SDS011;37913;48.370;10.930;2023-03-23T03:32:24;87.07;;;36.55;;
13255;SDS011;37913;48.370;10.930;2023-03-23T03:34:57;79.00;;;35.40;;
13255;SDS011;37913;48.370;10.930;2023-03-23T03:37:26;83.35;;;36.22;;
13255;SDS011;37913;48.370;10.930;2023-03-23T03:39:53;87.82;;;37.08;;
13255;SDS011;37913;48.370;10.930;2023-03-23T03:42:20;84.18;;;36.08;;
13255;SDS011;37913;48.370;10.930;2023-03-23T03:44:47;100.95;;;38.60;;
13255;SDS011;37913;48.370;10.930;2023-03-23T03:47:14;87.33;;;36.77;;
13255;SDS011;37913;48.370;10.930;2023-03-23T03:49:41;91.40;;;37.80;;
13255;SDS011;37913;48.370;10.930;2023-03-23T03:52:09;77.43;;;34.97;;
13255;SDS011;37913;48.370;10.930;2023-03-23T03:54:36;80.65;;;35.20;;
13255;SDS011;37913;48.370;10.930;2023-03-23T03:57:05;86.57;;;36.72;;
13255;SDS011;37913;48.370;10.930;2023-03-23T03:59:33;87.57;;;36.97;;
13255;SDS011;37913;48.370;10.930;2023-03-23T04:01:59;96.65;;;38.80;;
13255;SDS011;37913;48.370;10.930;2023-03-23T04:04:27;94.15;;;38.03;;
13255;SDS011;37913;48.370;10.930;2023-03-23T04:06:54;92.93;;;38.38;;
13255;SDS011;37913;48.370;10.930;2023-03-23T04:09:23;80.05;;;35.50;;
13255;SDS011;37913;48.370;10.930;2023-03-23T04:11:52;73.28;;;34.85;;
13255;SDS011;37913;48.370;10.930;2023-03-23T04:14:18;81.38;;;36.05;;
13255;SDS011;37913;48.370;10.930;2023-03-23T04:16:45;82.30;;;35.90;;
13255;SDS011;37913;48.370;10.930;2023-03-23T04:19:12;83.80;;;35.80;;
13255;SDS011;37913;48.370;10.930;2023-03-23T04:21:39;74.15;;;34.20;;
13255;SDS011;37913;48.370;10.930;2023-03-23T04:24:06;80.68;;;35.40;;
13255;SDS011;37913;48.370;10.930;2023-03-23T04:26:34;73.20;;;34.33;;
13255;SDS011;37913;48.370;10.930;2023-03-23T04:29:01;81.22;;;36.05;;
13255;SDS011;37913;48.370;10.930;2023-03-23T04:31:30;77.00;;;35.00;;
13255;SDS011;37913;48.370;10.930;2023-03-23T04:33:59;80.00;;;35.37;;
13255;SDS011;37913;48.370;10.930;2023-03-23T04:36:26;85.77;;;36.90;;
13255;SDS011;37913;48.370;10.930;2023-03-23T04:38:54;81.28;;;35.72;;
13255;SDS011;37913;48.370;10.930;2023-03-23T04:41:22;70.70;;;34.10;;
13255;SDS011;37913;48.370;10.930;2023-03-23T04:43:51;80.13;;;35.30;;
13255;SDS011;37913;48.370;10.930;2023-03-23T04:46:21;84.70;;;35.70;;
13255;SDS011;37913;48.370;10.930;2023-03-23T04:48:48;84.28;;;35.85;;
13255;SDS011;37913;48.370;10.930;2023-03-23T04:51:15;82.43;;;35.77;;
13255;SDS011;37913;48.370;10.930;2023-03-23T04:53:43;75.68;;;34.63;;
13255;SDS011;37913;48.370;10.930;2023-03-23T04:56:10;77.40;;;34.87;;
13255;SDS011;37913;48.370;10.930;2023-03-23T04:58:38;79.03;;;35.40;;
13255;SDS011;37913;48.370;10.930;2023-03-23T05:01:07;80.70;;;35.40;;
13255;SDS011;37913;48.370;10.930;2023-03-23T05:03:34;78.10;;;35.28;;
13255;SDS011;37913;48.370;10.930;2023-03-23T05:06:01;79.93;;;35.30;;
13255;SDS011;37913;48.370;10.930;2023-03-23T05:08:28;77.53;;;34.73;;
13255;SDS011;37913;48.370;10.930;2023-03-23T05:10:57;83.43;;;36.28;;
13255;SDS011;37913;48.370;10.930;2023-03-23T05:13:25;80.53;;;35.47;;
13255;SDS011;37913;48.370;10.930;2023-03-23T05:15:53;87.35;;;36.13;;
13255;SDS011;37913;48.370;10.930;2023-03-23T05:18:21;84.55;;;36.13;;
13255;SDS011;37913;48.370;10.930;2023-03-23T05:20:49;79.90;;;35.33;;
13255;SDS011;37913;48.370;10.930;2023-03-23T05:23:17;94.63;;;38.10;;
13255;SDS011;37913;48.370;10.930;2023-03-23T05:25:51;95.63;;;38.30;;
13255;SDS011;37913;48.370;10.930;2023-03-23T05:28:19;91.82;;;38.03;;
13255;SDS011;37913;48.370;10.930;2023-03-23T05:30:47;90.82;;;37.65;;
13255;SDS011;37913;48.370;10.930;2023-03-23T05:33:14;84.22;;;36.63;;
13255;SDS011;37913;48.370;10.930;2023-03-23T05:35:42;87.38;;;37.97;;
13255;SDS011;37913;48.370;10.930;2023-03-23T05:38:12;94.32;;;38.38;;
13255;SDS011;37913;48.370;10.930;2023-03-23T05:40:39;100.30;;;39.10;;
13255;SDS011;37913;48.370;10.930;2023-03-23T05:43:06;85.60;;;36.40;;
13255;SDS011;37913;48.370;10.930;2023-03-23T05:45:33;86.45;;;36.30;;
13255;SDS011;37913;48.370;10.930;2023-03-23T05:48:00;88.50;;;36.70;;
13255;SDS011;37913;48.370;10.930;2023-03-23T05:50:27;91.75;;;37.45;;
13255;SDS011;37913;48.370;10.930;2023-03-23T05:52:56;101.80;;;39.78;;
13255;SDS011;37913;48.370;10.930;2023-03-23T05:55:23;90.30;;;37.40;;
13255;SDS011;37913;48.370;10.930;2023-03-23T05:57:50;85.07;;;36.45;;
13255;SDS011;37913;48.370;10.930;2023-03-23T06:00:17;79.75;;;35.42;;
13255;SDS011;37913;48.370;10.930;2023-03-23T06:02:48;83.40;;;35.83;;
13255;SDS011;37913;48.370;10.930;2023-03-23T06:05:16;83.45;;;36.08;;
13255;SDS011;37913;48.370;10.930;2023-03-23T06:07:43;85.03;;;36.25;;
13255;SDS011;37913;48.370;10.930;2023-03-23T06:10:11;98.15;;;38.08;;
13255;SDS011;37913;48.370;10.930;2023-03-23T06:12:38;93.22;;;37.58;;
13255;SDS011;37913;48.370;10.930;2023-03-23T06:15:06;84.78;;;36.78;;
13255;SDS011;37913;48.370;10.930;2023-03-23T06:17:34;87.93;;;37.13;;
13255;SDS011;37913;48.370;10.930;2023-03-23T06:20:02;90.80;;;37.53;;
13255;SDS011;37913;48.370;10.930;2023-03-23T06:22:34;95.25;;;38.47;;
13255;SDS011;37913;48.370;10.930;2023-03-23T06:25:01;91.38;;;38.08;;
13255;SDS011;37913;48.370;10.930;2023-03-23T06:27:30;96.03;;;38.80;;
13255;SDS011;37913;48.370;10.930;2023-03-23T06:29:57;84.88;;;36.15;;
13255;SDS011;37913;48.370;10.930;2023-03-23T06:32:24;87.28;;;36.88;;
13255;SDS011;37913;48.370;10.930;2023-03-23T06:34:52;105.28;;;39.42;;
13255;SDS011;37913;48.370;10.930;2023-03-23T06:37:19;81.72;;;36.20;;
13255;SDS011;37913;48.370;10.930;2023-03-23T06:39:46;94.50;;;38.47;;
13255;SDS011;37913;48.370;10.930;2023-03-23T06:42:13;86.80;;;37.33;;
13255;SDS011;37913;48.370;10.930;2023-03-23T06:44:42;90.15;;;37.97;;
13255;SDS011;37913;48.370;10.930;2023-03-23T06:47:08;84.47;;;37.33;;
13255;SDS011;37913;48.370;10.930;2023-03-23T06:49:35;107.47;;;40.95;;
13255;SDS011;37913;48.370;10.930;2023-03-23T06:52:02;94.75;;;38.40;;
13255;SDS011;37913;48.370;10.930;2023-03-23T06:54:31;89.40;;;37.97;;
13255;SDS011;37913;48.370;10.930;2023-03-23T06:56:58;86.30;;;37.15;;
13255;SDS011;37913;48.370;10.930;2023-03-23T06:59:25;79.20;;;36.38;;
13255;SDS011;37913;48.370;10.930;2023-03-23T07:01:53;82.47;;;37.10;;
13255;SDS011;37913;48.370;10.930;2023-03-23T07:04:20;84.45;;;37.47;;
13255;SDS011;37913;48.370;10.930;2023-03-23T07:06:48;82.07;;;37.13;;
13255;SDS011;37913;48.370;10.930;2023-03-23T07:09:16;86.07;;;37.75;;
13255;SDS011;37913;48.370;10.930;2023-03-23T07:11:43;85.05;;;37.38;;
13255;SDS011;37913;48.370;10.930;2023-03-23T07:14:12;99.40;;;40.92;;
13255;SDS011;37913;48.370;10.930;2023-03-23T07:16:40;89.30;;;38.70;;
13255;SDS011;37913;48.370;10.930;2023-03-23T07:19:08;86.78;;;37.40;;
13255;SDS011;37913;48.370;10.930;2023-03-23T07:21:35;84.72;;;37.50;;
13255;SDS011;37913;48.370;10.930;2023-03-23T07:24:03;82.10;;;37.60;;
13255;SDS011;37913;48.370;10.930;2023-03-23T07:26:30;89.05;;;39.03;;
13255;SDS011;37913;48.370;10.930;2023-03-23T07:28:57;87.47;;;38.85;;
13255;SDS011;37913;48.370;10.930;2023-03-23T07:31:24;87.70;;;38.22;;
13255;SDS011;37913;48.370;10.930;2023-03-23T07:33:51;73.93;;;36.33;;
13255;SDS011;37913;48.370;10.930;2023-03-23T07:36:19;93.15;;;39.28;;
13255;SDS011;37913;48.370;10.930;2023-03-23T07:38:46;79.07;;;37.00;;
13255;SDS011;37913;48.370;10.930;2023-03-23T07:41:14;93.47;;;39.30;;
13255;SDS011;37913;48.370;10.930;2023-03-23T07:43:41;95.20;;;40.53;;
13255;SDS011;37913;48.370;10.930;2023-03-23T07:46:07;101.82;;;40.97;;
13255;SDS011;37913;48.370;10.930;2023-03-23T07:48:35;86.22;;;38.40;;
13255;SDS011;37913;48.370;10.930;2023-03-23T07:51:02;91.88;;;39.45;;
13255;SDS011;37913;48.370;10.930;2023-03-23T07:53:31;96.65;;;40.13;;
13255;SDS011;37913;48.370;10.930;2023-03-23T07:55:58;108.10;;;43.45;;
13255;SDS011;37913;48.370;10.930;2023-03-23T07:58:25;94.90;;;40.90;;
13255;SDS011;37913;48.370;10.930;2023-03-23T08:00:54;87.65;;;38.65;;
13255;SDS011;37913;48.370;10.930;2023-03-23T08:03:22;90.68;;;39.00;;
13255;SDS011;37913;48.370;10.930;2023-03-23T08:05:49;86.90;;;39.33;;
13255;SDS011;37913;48.370;10.930;2023-03-23T08:08:16;93.03;;;41.28;;
13255;SDS011;37913;48.370;10.930;2023-03-23T08:10:44;90.15;;;40.33;;
13255;SDS011;37913;48.370;10.930;2023-03-23T08:13:12;89.88;;;39.05;;
13255;SDS011;37913;48.370;10.930;2023-03-23T08:15:39;87.32;;;39.80;;
13255;SDS011;37913;48.370;10.930;2023-03-23T08:18:06;72.88;;;37.25;;
13255;SDS011;37913;48.370;10.930;2023-03-23T08:20:33;101.97;;;43.28;;
13255;SDS011;37913;48.370;10.930;2023-03-23T08:23:01;96.55;;;41.72;;
13255;SDS011;37913;48.370;10.930;2023-03-23T08:25:29;88.82;;;40.28;;
13255;SDS011;37913;48.370;10.930;2023-03-23T08:27:58;88.45;;;40.05;;
13255;SDS011;37913;48.370;10.930;2023-03-23T08:30:27;94.13;;;41.60;;
13255;SDS011;37913;48.370;10.930;2023-03-23T08:32:58;95.88;;;42.10;;
13255;SDS011;37913;48.370;10.930;2023-03-23T08:35:26;94.03;;;41.28;;
13255;SDS011;37913;48.370;10.930;2023-03-23T08:37:53;107.43;;;44.35;;
13255;SDS011;37913;48.370;10.930;2023-03-23T08:40:21;89.85;;;40.78;;
13255;SDS011;37913;48.370;10.930;2023-03-23T08:42:50;93.30;;;41.72;;
13255;SDS011;37913;48.370;10.930;2023-03-23T08:45:20;91.40;;;41.17;;
13255;SDS011;37913;48.370;10.930;2023-03-23T08:47:49;98.30;;;43.63;;
13255;SDS011;37913;48.370;10.930;2023-03-23T08:50:17;84.60;;;40.20;;
13255;SDS011;37913;48.370;10.930;2023-03-23T08:52:45;85.38;;;40.58;;
13255;SDS011;37913;48.370;10.930;2023-03-23T08:55:12;87.15;;;40.45;;
13255;SDS011;37913;48.370;10.930;2023-03-23T08:57:40;91.95;;;41.45;;
13255;SDS011;37913;48.370;10.930;2023-03-23T09:00:11;83.50;;;39.20;;
13255;SDS011;37913;48.370;10.930;2023-03-23T09:02:44;92.18;;;42.00;;
13255;SDS011;37913;48.370;10.930;2023-03-23T09:05:13;94.65;;;41.92;;
13255;SDS011;37913;48.370;10.930;2023-03-23T09:07:41;103.30;;;44.30;;
13255;SDS011;37913;48.370;10.930;2023-03-23T09:10:11;91.72;;;41.15;;
13255;SDS011;37913;48.370;10.930;2023-03-23T09:12:39;85.75;;;39.88;;
13255;SDS011;37913;48.370;10.930;2023-03-23T09:15:07;84.88;;;39.47;;
13255;SDS011;37913;48.370;10.930;2023-03-23T09:17:37;89.05;;;40.42;;
13255;SDS011;37913;48.370;10.930;2023-03-23T09:20:08;93.32;;;42.25;;
13255;SDS011;37913;48.370;10.930;2023-03-23T09:22:37;89.43;;;41.10;;
13255;SDS011;37913;48.370;10.930;2023-03-23T09:25:05;100.47;;;43.42;;
13255;SDS011;37913;48.370;10.930;2023-03-23T09:27:33;91.32;;;41.67;;
13255;SDS011;37913;48.370;10.930;2023-03-23T09:30:02;98.50;;;42.75;;
13255;SDS011;37913;48.370;10.930;2023-03-23T09:32:31;100.20;;;43.33;;
13255;SDS011;37913;48.370;10.930;2023-03-23T09:34:59;100.60;;;43.30;;
13255;SDS011;37913;48.370;10.930;2023-03-23T09:37:28;80.20;;;40.35;;
13255;SDS011;37913;48.370;10.930;2023-03-23T09:39:55;90.50;;;41.50;;
13255;SDS011;37913;48.370;10.930;2023-03-23T09:42:35;87.95;;;41.67;;
13255;SDS011;37913;48.370;10.930;2023-03-23T09:45:11;80.00;;;39.65;;
13255;SDS011;37913;48.370;10.930;2023-03-23T09:47:48;82.50;;;40.03;;
13255;SDS011;37913;48.370;10.930;2023-03-23T09:50:27;83.40;;;40.67;;
13255;SDS011;37913;48.370;10.930;2023-03-23T09:53:00;92.45;;;42.15;;
13255;SDS011;37913;48.370;10.930;2023-03-23T09:55:31;85.40;;;41.15;;
13255;SDS011;37913;48.370;10.930;2023-03-23T09:57:59;87.63;;;41.78;;
13255;SDS011;37913;48.370;10.930;2023-03-23T10:00:34;103.97;;;44.75;;
13255;SDS011;37913;48.370;10.930;2023-03-23T10:03:05;89.75;;;41.90;;
13255;SDS011;37913;48.370;10.930;2023-03-23T10:05:34;92.28;;;41.92;;
13255;SDS011;37913;48.370;10.930;2023-03-23T10:08:08;85.70;;;40.97;;
13255;SDS011;37913;48.370;10.930;2023-03-23T10:10:47;90.28;;;41.67;;
13255;SDS011;37913;48.370;10.930;2023-03-23T10:13:23;105.88;;;45.10;;
13255;SDS011;37913;48.370;10.930;2023-03-23T10:15:56;78.72;;;39.10;;
13255;SDS011;37913;48.370;10.930;2023-03-23T10:18:25;88.05;;;41.30;;
13255;SDS011;37913;48.370;10.930;2023-03-23T10:20:57;96.40;;;43.00;;
13255;SDS011;37913;48.370;10.930;2023-03-23T10:26:24;88.13;;;41.00;;
13255;SDS011;37913;48.370;10.930;2023-03-23T10:28:57;87.38;;;40.80;;
13255;SDS011;37913;48.370;10.930;2023-03-23T10:31:28;91.85;;;41.90;;
13255;SDS011;37913;48.370;10.930;2023-03-23T10:34:02;80.15;;;40.03;;
13255;SDS011;37913;48.370;10.930;2023-03-23T10:36:35;89.57;;;42.15;;
13255;SDS011;37913;48.370;10.930;2023-03-23T10:39:09;96.53;;;43.60;;
13255;SDS011;37913;48.370;10.930;2023-03-23T10:41:39;88.63;;;41.97;;
13255;SDS011;37913;48.370;10.930;2023-03-23T10:44:09;90.55;;;42.55;;
13255;SDS011;37913;48.370;10.930;2023-03-23T10:46:43;93.45;;;42.70;;
13255;SDS011;37913;48.370;10.930;2023-03-23T10:49:14;93.35;;;43.38;;
13255;SDS011;37913;48.370;10.930;2023-03-23T10:51:46;92.43;;;43.05;;
13255;SDS011;37913;48.370;10.930;2023-03-23T10:54:26;92.10;;;42.72;;
13255;SDS011;37913;48.370;10.930;2023-03-23T10:56:58;89.50;;;42.47;;
13255;SDS011;37913;48.370;10.930;2023-03-23T10:59:26;106.03;;;48.25;;
13255;SDS011;37913;48.370;10.930;2023-03-23T11:01:56;101.82;;;46.33;;
13255;SDS011;37913;48.370;10.930;2023-03-23T11:04:27;75.45;;;41.33;;
13255;SDS011;37913;48.370;10.930;2023-03-23T11:06:58;95.88;;;46.05;;
13255;SDS011;37913;48.370;10.930;2023-03-23T11:09:35;95.00;;;46.47;;
13255;SDS011;37913;48.370;10.930;2023-03-23T11:12:03;90.60;;;45.85;;
13255;SDS011;37913;48.370;10.930;2023-03-23T11:14:31;100.95;;;48.50;;
13255;SDS011;37913;48.370;10.930;2023-03-23T11:17:04;92.35;;;47.17;;
13255;SDS011;37913;48.370;10.930;2023-03-23T11:19:46;99.80;;;48.88;;
13255;SDS011;37913;48.370;10.930;2023-03-23T11:22:15;98.03;;;48.33;;
13255;SDS011;37913;48.370;10.930;2023-03-23T11:24:50;101.45;;;48.33;;
13255;SDS011;37913;48.370;10.930;2023-03-23T11:27:20;94.07;;;46.58;;
13255;SDS011;37913;48.370;10.930;2023-03-23T11:29:49;98.85;;;47.85;;
13255;SDS011;37913;48.370;10.930;2023-03-23T11:32:18;83.47;;;44.38;;
13255;SDS011;37913;48.370;10.930;2023-03-23T11:34:53;100.03;;;46.97;;
13255;SDS011;37913;48.370;10.930;2023-03-23T11:37:24;100.47;;;47.00;;
13255;SDS011;37913;48.370;10.930;2023-03-23T11:39:57;100.72;;;47.00;;
13255;SDS011;37913;48.370;10.930;2023-03-23T11:42:26;104.80;;;47.78;;
13255;SDS011;37913;48.370;10.930;2023-03-23T11:45:12;93.35;;;45.13;;
13255;SDS011;37913;48.370;10.930;2023-03-23T11:47:43;100.95;;;47.63;;
13255;SDS011;37913;48.370;10.930;2023-03-23T11:50:20;92.70;;;49.85;;
13255;SDS011;37913;48.370;10.930;2023-03-23T11:52:51;102.20;;;49.47;;
13255;SDS011;37913;48.370;10.930;2023-03-23T11:55:28;92.13;;;48.08;;
13255;SDS011;37913;48.370;10.930;2023-03-23T11:58:03;94.13;;;47.83;;
13255;SDS011;37913;48.370;10.930;2023-03-23T12:00:36;103.88;;;49.88;;
13255;SDS011;37913;48.370;10.930;2023-03-23T12:03:32;108.43;;;51.13;;
13255;SDS011;37913;48.370;10.930;2023-03-23T12:06:11;100.88;;;48.22;;
13255;SDS011;37913;48.370;10.930;2023-03-23T12:08:48;90.90;;;44.33;;
13255;SDS011;37913;48.370;10.930;2023-03-23T12:11:26;99.35;;;46.17;;
13255;SDS011;37913;48.370;10.930;2023-03-23T12:14:02;93.15;;;45.05;;
13255;SDS011;37913;48.370;10.930;2023-03-23T12:16:43;91.88;;;43.85;;
13255;SDS011;37913;48.370;10.930;2023-03-23T12:19:19;91.53;;;44.13;;
13255;SDS011;37913;48.370;10.930;2023-03-23T12:21:55;100.07;;;45.58;;
13255;SDS011;37913;48.370;10.930;2023-03-23T12:24:35;78.43;;;41.42;;
13255;SDS011;37913;48.370;10.930;2023-03-23T12:27:14;82.63;;;42.40;;
13255;SDS011;37913;48.370;10.930;2023-03-23T12:30:00;93.72;;;44.28;;
13255;SDS011;37913;48.370;10.930;2023-03-23T12:32:41;98.70;;;44.75;;
13255;SDS011;37913;48.370;10.930;2023-03-23T12:35:20;100.93;;;45.53;;
13255;SDS011;37913;48.370;10.930;2023-03-23T12:37:58;113.78;;;47.85;;
13255;SDS011;37913;48.370;10.930;2023-03-23T12:40:44;93.22;;;43.58;;
13255;SDS011;37913;48.370;10.930;2023-03-23T12:43:27;95.57;;;44.17;;
13255;SDS011;37913;48.370;10.930;2023-03-23T12:49:05;81.20;;;40.97;;
13255;SDS011;37913;48.370;10.930;2023-03-23T12:51:39;93.05;;;52.42;;
13255;SDS011;37913;48.370;10.930;2023-03-23T12:54:12;99.03;;;44.30;;
13255;SDS011;37913;48.370;10.930;2023-03-23T12:56:47;95.28;;;51.83;;
13255;SDS011;37913;48.370;10.930;2023-03-23T12:59:21;91.75;;;49.45;;
13255;SDS011;37913;48.370;10.930;2023-03-23T13:01:56;94.28;;;52.38;;
13255;SDS011;37913;48.370;10.930;2023-03-23T13:04:29;86.07;;;42.03;;
13255;SDS011;37913;48.370;10.930;2023-03-23T13:06:59;94.28;;;54.33;;
13255;SDS011;37913;48.370;10.930;2023-03-23T13:09:30;90.40;;;62.47;;
13255;SDS011;37913;48.370;10.930;2023-03-23T13:12:03;101.40;;;55.55;;
13255;SDS011;37913;48.370;10.930;2023-03-23T13:14:35;93.93;;;50.88;;
13255;SDS011;37913;48.370;10.930;2023-03-23T13:17:10;89.32;;;50.55;;
13255;SDS011;37913;48.370;10.930;2023-03-23T13:19:59;96.57;;;49.55;;
13255;SDS011;37913;48.370;10.930;2023-03-23T13:22:39;92.97;;;50.35;;
13255;SDS011;37913;48.370;10.930;2023-03-23T13:25:13;96.90;;;46.92;;
13255;SDS011;37913;48.370;10.930;2023-03-23T13:27:44;98.03;;;48.50;;
13255;SDS011;37913;48.370;10.930;2023-03-23T13:30:24;102.93;;;63.72;;
13255;SDS011;37913;48.370;10.930;2023-03-23T13:33:00;97.35;;;49.70;;
13255;SDS011;37913;48.370;10.930;2023-03-23T13:35:33;96.57;;;47.28;;
13255;SDS011;37913;48.370;10.930;2023-03-23T13:38:02;84.78;;;44.10;;
13255;SDS011;37913;48.370;10.930;2023-03-23T13:40:41;95.55;;;63.45;;
13255;SDS011;37913;48.370;10.930;2023-03-23T13:43:09;97.05;;;48.53;;
13255;SDS011;37913;48.370;10.930;2023-03-23T13:45:44;103.18;;;53.03;;
13255;SDS011;37913;48.370;10.930;2023-03-23T13:48:19;92.57;;;46.00;;
13255;SDS011;37913;48.370;10.930;2023-03-23T13:50:52;99.90;;;48.60;;
13255;SDS011;37913;48.370;10.930;2023-03-23T13:53:23;95.13;;;47.67;;
13255;SDS011;37913;48.370;10.930;2023-03-23T13:56:05;85.05;;;44.22;;
13255;SDS011;37913;48.370;10.930;2023-03-23T13:58:43;90.50;;;44.88;;
13255;SDS011;37913;48.370;10.930;2023-03-23T14:01:15;95.88;;;48.45;;
13255;SDS011;37913;48.370;10.930;2023-03-23T14:03:45;93.68;;;44.67;;
13255;SDS011;37913;48.370;10.930;2023-03-23T14:06:16;93.18;;;43.05;;
13255;SDS011;37913;48.370;10.930;2023-03-23T14:08:47;84.47;;;40.83;;
13255;SDS011;37913;48.370;10.930;2023-03-23T14:11:19;92.57;;;42.85;;
13255;SDS011;37913;48.370;10.930;2023-03-23T14:13:58;96.30;;;43.22;;
13255;SDS011;37913;48.370;10.930;2023-03-23T14:16:34;88.00;;;41.22;;
13255;SDS011;37913;48.370;10.930;2023-03-23T14:19:04;93.32;;;42.40;;
13255;SDS011;37913;48.370;10.930;2023-03-23T14:21:42;88.72;;;41.55;;
13255;SDS011;37913;48.370;10.930;2023-03-23T14:24:15;92.88;;;41.75;;
13255;SDS011;37913;48.370;10.930;2023-03-23T14:26:44;78.15;;;39.08;;
13255;SDS011;37913;48.370;10.930;2023-03-23T14:29:12;97.18;;;42.35;;
13255;SDS011;37913;48.370;10.930;2023-03-23T14:31:41;89.35;;;40.88;;
13255;SDS011;37913;48.370;10.930;2023-03-23T14:34:11;105.85;;;44.92;;
13255;SDS011;37913;48.370;10.930;2023-03-23T14:36:40;94.63;;;41.88;;
13255;SDS011;37913;48.370;10.930;2023-03-23T14:39:12;93.55;;;41.60;;
13255;SDS011;37913;48.370;10.930;2023-03-23T14:41:43;89.25;;;40.88;;
13255;SDS011;37913;48.370;10.930;2023-03-23T14:44:12;89.78;;;40.95;;
13255;SDS011;37913;48.370;10.930;2023-03-23T14:46:43;80.82;;;40.33;;
13255;SDS011;37913;48.370;10.930;2023-03-23T14:49:12;94.13;;;41.63;;